Time;durP1;ratioP1;P1;durP2;ratioP2;P2;SDS_P1;SDS_P2;PMS_P1;PMS_P2;Temp;Humidity;BMP_temperature;BMP_pressure;BME280_temperature;BME280_humidity;BME280_pressure;Samples;Min_cycle;Max_cycle;Signal;HPM_P1;HPM_P2
2022/06/17 00:00:28;;;;;;;2.17;1.98;;;21.40;54.90;;;;;;5050379;28;20139;-71
2022/06/17 00:02:54;;;;;;;2.10;1.80;;;21.50;55.50;;;;;;5066027;28;20050;-71
2022/06/17 00:05:21;;;;;;;2.40;1.90;;;21.50;59.20;;;;;;5059198;28;20127;-71
2022/06/17 00:07:48;;;;;;;2.75;2.10;;;21.40;58.80;;;;;;5049964;28;20044;-72
2022/06/17 00:10:20;;;;;;;2.35;1.80;;;21.40;55.00;;;;;;5056097;28;20047;-72
2022/06/17 00:12:47;;;;;;;2.10;1.90;;;21.40;54.90;;;;;;5060204;28;20059;-72
2022/06/17 00:15:14;;;;;;;2.47;1.98;;;21.30;58.70;;;;;;5067595;28;20152;-72
2022/06/17 00:17:44;;;;;;;2.75;2.25;;;21.40;55.00;;;;;;5067021;28;20044;-72
2022/06/17 00:20:13;;;;;;;2.15;1.90;;;21.20;58.50;;;;;;5068379;28;20048;-72
2022/06/17 00:22:41;;;;;;;2.25;2.05;;;21.10;58.40;;;;;;5059407;28;20144;-72
2022/06/17 00:25:25;;;;;;;2.25;2.05;;;21.40;58.90;;;;;;5053581;28;20049;-71
2022/06/17 00:27:51;;;;;;;2.40;2.10;;;21.30;55.00;;;;;;5052542;28;20055;-71
2022/06/17 00:30:20;;;;;;;2.15;1.90;;;21.70;58.40;;;;;;5064244;28;20052;-71
2022/06/17 00:32:48;;;;;;;2.47;1.98;;;21.80;58.40;;;;;;5066359;28;20143;-74
2022/06/17 00:35:14;;;;;;;2.30;2.10;;;21.30;55.00;;;;;;5068033;28;20076;-71
2022/06/17 00:37:41;;;;;;;2.78;2.20;;;21.30;55.00;;;;;;5068284;28;20070;-71
2022/06/17 00:40:13;;;;;;;2.20;1.92;;;21.20;55.00;;;;;;5067674;28;20485;-72
2022/06/17 00:42:40;;;;;;;2.28;2.08;;;21.80;59.20;;;;;;5056998;28;20139;-72
2022/06/17 00:45:12;;;;;;;2.40;2.20;;;21.50;58.80;;;;;;5048045;28;20057;-72
2022/06/17 00:47:40;;;;;;;2.28;2.08;;;21.20;55.00;;;;;;5060890;28;20063;-70
2022/06/17 00:50:13;;;;;;;2.65;2.10;;;21.30;59.20;;;;;;5067540;28;20123;-72
2022/06/17 00:52:42;;;;;;;4.32;2.20;;;21.20;55.00;;;;;;5051935;28;20110;-72
2022/06/17 00:55:13;;;;;;;2.17;1.85;;;21.30;58.90;;;;;;5048698;28;20055;-72
2022/06/17 00:57:41;;;;;;;2.10;1.90;;;21.30;55.10;;;;;;5063183;28;20512;-72
2022/06/17 01:00:16;;;;;;;2.40;1.98;;;21.20;59.90;;;;;;5050310;28;20056;-72
2022/06/17 01:02:45;;;;;;;2.45;2.15;;;21.20;55.00;;;;;;5064686;28;20056;-70
2022/06/17 01:05:14;;;;;;;2.50;1.90;;;21.20;59.00;;;;;;5066467;28;20052;-73
2022/06/17 01:07:42;;;;;;;2.75;2.38;;;21.10;58.80;;;;;;5067487;28;20056;-71
2022/06/17 01:10:09;;;;;;;3.22;2.10;;;22.20;58.80;;;;;;5067341;28;20055;-72
2022/06/17 01:12:38;;;;;;;2.63;2.20;;;21.10;55.00;;;;;;5059610;28;20429;-71
2022/06/17 01:15:06;;;;;;;2.42;2.15;;;21.00;58.50;;;;;;5048829;28;20053;-71
2022/06/17 01:17:32;;;;;;;3.00;2.35;;;21.10;59.30;;;;;;5047751;28;20053;-71
2022/06/17 01:20:00;;;;;;;3.00;2.28;;;21.20;58.40;;;;;;5064691;28;20417;-72
2022/06/17 01:22:38;;;;;;;2.53;2.00;;;21.10;55.10;;;;;;5067634;28;20460;-71
2022/06/17 01:25:07;;;;;;;3.00;2.35;;;21.10;59.20;;;;;;5050165;28;20124;-72
2022/06/17 01:27:35;;;;;;;2.65;2.05;;;20.90;58.40;;;;;;5063644;28;20052;-72
2022/06/17 01:30:02;;;;;;;2.60;2.10;;;21.00;58.00;;;;;;5054076;28;20053;-71
2022/06/17 01:32:30;;;;;;;2.20;1.92;;;21.20;58.90;;;;;;5048200;28;20041;-71
2022/06/17 01:34:57;;;;;;;2.22;2.00;;;21.10;55.10;;;;;;5058556;28;20056;-71
2022/06/17 01:37:24;;;;;;;2.40;2.03;;;21.00;55.00;;;;;;5067993;28;20098;-71
2022/06/17 01:39:52;;;;;;;2.50;2.30;;;21.10;55.10;;;;;;5064351;28;20060;-71
2022/06/17 01:42:18;;;;;;;3.47;2.10;;;20.80;59.10;;;;;;5067999;28;20057;-72
2022/06/17 01:44:45;;;;;;;2.47;2.10;;;21.00;55.10;;;;;;5049419;28;20144;-71
2022/06/17 01:47:15;;;;;;;2.40;2.17;;;20.90;57.80;;;;;;5047525;28;20478;-73
2022/06/17 01:49:44;;;;;;;2.38;1.98;;;21.00;55.10;;;;;;5048786;28;20053;-71
2022/06/17 01:52:12;;;;;;;2.78;2.30;;;21.50;58.40;;;;;;5047628;28;20155;-71
2022/06/17 01:54:41;;;;;;;2.17;1.98;;;21.00;59.00;;;;;;5062541;28;20049;-70
2022/06/17 01:57:10;;;;;;;3.03;2.30;;;21.00;55.10;;;;;;5051969;28;20041;-72
2022/06/17 01:59:39;;;;;;;2.50;2.03;;;21.10;58.90;;;;;;5066925;28;20702;-72
2022/06/17 02:02:06;;;;;;;2.80;2.20;;;21.00;55.20;;;;;;5067022;28;20123;-72
2022/06/17 02:04:34;;;;;;;2.88;2.40;;;21.30;58.70;;;;;;5068290;28;20048;-72
2022/06/17 02:07:04;;;;;;;2.50;2.03;;;21.00;58.00;;;;;;5050502;28;20067;-72
2022/06/17 02:09:30;;;;;;;2.30;2.10;;;20.40;58.90;;;;;;5067129;28;20092;-72
2022/06/17 02:11:57;;;;;;;2.60;2.40;;;20.80;58.70;;;;;;5058181;28;20055;-72
2022/06/17 02:14:25;;;;;;;2.25;2.05;;;20.90;55.10;;;;;;5048095;28;20476;-70
2022/06/17 02:16:53;;;;;;;2.40;2.08;;;20.90;55.10;;;;;;5047163;28;20128;-72
2022/06/17 02:19:20;;;;;;;2.60;2.30;;;21.10;59.10;;;;;;5049033;28;20127;-71
2022/06/17 02:21:51;;;;;;;2.03;1.80;;;20.80;59.10;;;;;;5058126;28;20140;-71
2022/06/17 02:24:17;;;;;;;2.75;2.13;;;20.90;58.80;;;;;;5051645;28;20053;-71
2022/06/17 02:26:44;;;;;;;3.30;2.15;;;20.80;57.80;;;;;;5065306;28;20127;-72
2022/06/17 02:29:12;;;;;;;2.67;2.10;;;20.90;59.00;;;;;;5068854;28;20057;-72
2022/06/17 02:31:41;;;;;;;3.25;2.38;;;20.90;55.10;;;;;;5054099;28;20518;-71
2022/06/17 02:34:08;;;;;;;2.80;1.92;;;20.90;55.10;;;;;;5071020;28;20649;-71
2022/06/17 02:36:35;;;;;;;3.33;2.45;;;20.80;57.80;;;;;;5070781;28;20135;-72
2022/06/17 02:39:02;;;;;;;2.33;1.83;;;20.80;58.10;;;;;;5059465;28;20614;-72
2022/06/17 02:41:29;;;;;;;2.72;2.20;;;21.00;55.10;;;;;;5068025;28;20128;-72
2022/06/17 02:43:57;;;;;;;2.85;2.40;;;20.80;58.80;;;;;;5062393;28;20059;-72
2022/06/17 02:46:27;;;;;;;2.30;2.10;;;20.80;55.00;;;;;;5058483;28;20049;-72
2022/06/17 02:48:56;;;;;;;2.70;2.08;;;21.80;59.40;;;;;;5058639;28;20511;-72
2022/06/17 02:51:23;;;;;;;2.30;1.88;;;20.80;59.10;;;;;;5069785;28;20055;-72
2022/06/17 02:53:50;;;;;;;2.40;2.17;;;20.80;55.10;;;;;;5064797;28;20048;-71
2022/06/17 02:56:20;;;;;;;2.83;2.33;;;20.80;60.30;;;;;;5059065;28;20053;-71
2022/06/17 02:58:52;;;;;;;2.30;2.10;;;20.70;59.10;;;;;;5058603;28;20044;-71
2022/06/17 03:01:20;;;;;;;3.15;2.30;;;20.80;58.70;;;;;;5071246;28;20040;-71
2022/06/17 03:03:47;;;;;;;2.60;2.40;;;20.80;59.20;;;;;;5063103;28;20520;-71
2022/06/17 03:06:17;;;;;;;2.63;2.20;;;20.70;55.10;;;;;;5051092;28;20422;-71
2022/06/17 03:08:45;;;;;;;2.42;2.20;;;20.70;55.10;;;;;;5059559;28;20045;-71
2022/06/17 03:11:12;;;;;;;2.63;2.30;;;20.70;59.30;;;;;;5049546;28;20045;-72
2022/06/17 03:13:41;;;;;;;2.40;2.15;;;21.60;59.10;;;;;;5050775;28;20051;-71
2022/06/17 03:16:09;;;;;;;2.70;2.13;;;20.70;55.10;;;;;;5059942;28;20416;-72
2022/06/17 03:18:36;;;;;;;3.03;2.35;;;20.70;55.10;;;;;;5063506;28;20490;-71
2022/06/17 03:21:03;;;;;;;3.95;2.25;;;20.00;58.00;;;;;;5049228;28;20075;-71
2022/06/17 03:23:34;;;;;;;2.72;2.08;;;20.80;58.70;;;;;;5062882;28;20527;-71
2022/06/17 03:26:03;;;;;;;2.53;2.03;;;20.60;59.20;;;;;;5069534;28;20060;-71
2022/06/17 03:28:30;;;;;;;4.47;2.30;;;21.00;59.10;;;;;;5069045;28;20140;-71
2022/06/17 03:31:01;;;;;;;2.88;2.25;;;20.50;58.40;;;;;;5061649;28;20509;-72
2022/06/17 03:33:32;;;;;;;2.83;2.17;;;20.60;55.10;;;;;;5050669;28;20572;-72
2022/06/17 03:36:01;;;;;;;3.28;2.30;;;20.70;59.10;;;;;;5050963;28;20085;-72
2022/06/17 03:38:30;;;;;;;2.58;2.35;;;20.60;55.10;;;;;;5061095;28;20173;-71
2022/06/17 03:41:00;;;;;;;2.88;2.17;;;20.60;55.10;;;;;;5060874;28;20075;-72
2022/06/17 03:43:29;;;;;;;2.50;2.30;;;20.70;55.10;;;;;;5057671;28;20078;-72
2022/06/17 03:45:59;;;;;;;2.55;2.15;;;20.50;59.20;;;;;;5056984;28;20147;-71
2022/06/17 03:48:29;;;;;;;2.28;2.05;;;21.20;58.60;;;;;;5049171;28;20063;-71
2022/06/17 03:50:56;;;;;;;2.95;2.35;;;20.70;58.50;;;;;;5055727;28;20127;-71
2022/06/17 03:53:25;;;;;;;2.55;2.30;;;20.60;55.20;;;;;;5069534;28;20070;-71
2022/06/17 03:55:52;;;;;;;3.03;2.20;;;20.80;58.50;;;;;;5069171;28;20539;-71
2022/06/17 03:58:20;;;;;;;2.42;2.15;;;20.60;55.20;;;;;;5068322;28;20664;-71
2022/06/17 04:00:49;;;;;;;2.60;2.20;;;20.60;55.10;;;;;;5070218;28;20071;-71
2022/06/17 04:03:17;;;;;;;3.20;2.30;;;20.50;59.70;;;;;;5056993;28;20062;-71
2022/06/17 04:05:44;;;;;;;2.70;2.30;;;21.40;59.50;;;;;;5056291;28;20132;-72
2022/06/17 04:08:12;;;;;;;2.60;2.10;;;20.60;55.20;;;;;;5050074;28;20048;-71
2022/06/17 04:10:39;;;;;;;3.22;2.40;;;20.80;58.70;;;;;;5049984;28;20056;-71
2022/06/17 04:13:06;;;;;;;2.33;2.08;;;20.60;55.20;;;;;;5057148;28;20401;-72
2022/06/17 04:15:39;;;;;;;2.78;2.08;;;19.90;58.20;;;;;;5068233;28;20064;-71
2022/06/17 04:18:06;;;;;;;2.55;2.28;;;20.60;55.20;;;;;;5050366;28;20060;-71
2022/06/17 04:20:38;;;;;;;4.47;2.33;;;20.60;59.70;;;;;;5066364;28;20057;-71
2022/06/17 04:23:08;;;;;;;2.55;2.28;;;20.60;55.20;;;;;;5058847;28;20693;-72
2022/06/17 04:25:37;;;;;;;3.10;2.20;;;20.60;55.20;;;;;;5062939;28;20060;-71
2022/06/17 04:28:06;;;;;;;3.20;2.55;;;20.60;55.20;;;;;;5065973;28;20489;-70
2022/06/17 04:30:37;;;;;;;2.47;2.17;;;20.60;59.10;;;;;;5063318;28;20044;-72
2022/06/17 04:33:06;;;;;;;2.65;2.15;;;20.60;59.10;;;;;;5067587;28;20131;-72
2022/06/17 04:35:34;;;;;;;3.63;2.40;;;20.60;55.10;;;;;;5048098;28;20084;-70
2022/06/17 04:38:01;;;;;;;2.95;2.10;;;20.60;59.60;;;;;;5063814;28;20052;-72
2022/06/17 04:40:32;;;;;;;2.80;2.40;;;20.60;58.80;;;;;;5048564;28;20065;-71
2022/06/17 04:42:59;;;;;;;2.50;2.28;;;20.60;55.10;;;;;;5066253;28;20127;-71
2022/06/17 04:45:27;;;;;;;2.85;2.10;;;20.60;55.10;;;;;;5069044;28;20106;-71
2022/06/17 04:47:55;;;;;;;2.50;2.30;;;20.60;58.80;;;;;;5053434;28;20055;-72
2022/06/17 04:50:23;;;;;;;3.45;2.20;;;20.30;58.30;;;;;;5049543;28;20057;-72
2022/06/17 04:52:51;;;;;;;2.55;2.30;;;20.60;55.20;;;;;;5067506;28;20497;-71
2022/06/17 04:55:20;;;;;;;2.65;2.00;;;20.60;55.20;;;;;;5069212;28;20083;-71
2022/06/17 04:57:47;;;;;;;2.63;2.33;;;20.60;55.20;;;;;;5060947;28;20066;-71
2022/06/17 05:00:19;;;;;;;2.75;2.10;;;20.70;58.70;;;;;;5059877;28;20041;-71
2022/06/17 05:02:45;;;;;;;2.60;2.20;;;20.90;58.90;;;;;;5063522;28;20044;-72
2022/06/17 05:05:17;;;;;;;3.05;2.00;;;20.70;60.00;;;;;;5066877;28;20052;-72
2022/06/17 05:07:46;;;;;;;2.50;2.30;;;20.00;58.50;;;;;;5068938;28;20054;-72
2022/06/17 05:10:16;;;;;;;2.35;1.90;;;20.60;55.20;;;;;;5049242;28;20049;-70
2022/06/17 05:12:45;;;;;;;2.30;2.10;;;20.70;55.20;;;;;;5055753;28;20052;-72
2022/06/17 05:15:12;;;;;;;2.53;2.00;;;20.30;58.60;;;;;;5066901;28;20408;-72
2022/06/17 05:17:39;;;;;;;2.88;2.25;;;20.60;55.20;;;;;;5068841;28;20384;-72
2022/06/17 05:20:07;;;;;;;2.53;1.95;;;20.60;55.20;;;;;;5062969;28;20048;-72
2022/06/17 05:22:36;;;;;;;2.78;2.10;;;20.60;55.20;;;;;;5066672;28;20481;-71
2022/06/17 05:25:04;;;;;;;2.47;2.08;;;19.40;59.10;;;;;;5068530;28;20048;-71
2022/06/17 05:27:31;;;;;;;1.98;1.77;;;20.60;55.20;;;;;;5063867;28;20048;-71
2022/06/17 05:29:57;;;;;;;3.50;2.22;;;21.50;59.40;;;;;;5066249;28;20055;-71
2022/06/17 05:32:24;;;;;;;2.13;1.92;;;20.50;58.90;;;;;;5068396;28;20040;-71
2022/06/17 05:34:51;;;;;;;2.47;2.10;;;19.60;58.70;;;;;;5067449;28;20057;-71
2022/06/17 05:37:17;;;;;;;2.67;2.10;;;20.40;59.00;;;;;;5065150;28;20122;-71
2022/06/17 05:39:45;;;;;;;2.28;2.00;;;20.60;55.20;;;;;;5055182;28;20048;-72
2022/06/17 05:42:12;;;;;;;2.35;2.00;;;20.50;55.20;;;;;;5057891;28;20048;-72
2022/06/17 05:44:39;;;;;;;2.47;2.10;;;19.40;58.20;;;;;;5068491;28;20079;-72
2022/06/17 05:47:07;;;;;;;3.40;2.30;;;20.50;55.20;;;;;;5052773;28;20087;-72
2022/06/17 05:49:34;;;;;;;2.28;1.83;;;20.60;55.20;;;;;;5048105;28;20144;-72
2022/06/17 05:52:00;;;;;;;3.42;2.15;;;20.60;55.20;;;;;;5062174;28;20123;-71
2022/06/17 05:54:27;;;;;;;2.38;2.00;;;20.60;55.30;;;;;;5065560;28;20044;-71
2022/06/17 05:56:55;;;;;;;2.53;2.10;;;20.50;55.30;;;;;;5071092;28;20079;-71
2022/06/17 05:59:22;;;;;;;2.30;1.83;;;19.20;59.20;;;;;;5063612;28;20048;-71
2022/06/17 06:01:48;;;;;;;2.42;2.20;;;20.50;55.30;;;;;;5061930;28;20434;-71
2022/06/17 06:04:15;;;;;;;2.33;2.10;;;20.60;55.50;;;;;;5071252;28;20055;-71
2022/06/17 06:06:42;;;;;;;5.72;2.38;;;20.50;58.10;;;;;;5072845;28;20052;-71
2022/06/17 06:09:09;;;;;;;4.13;2.45;;;20.50;55.60;;;;;;5061280;28;20048;-73
2022/06/17 06:11:36;;;;;;;7.45;3.30;;;20.70;59.80;;;;;;5067660;28;20044;-70
2022/06/17 06:14:04;;;;;;;6.28;3.03;;;20.60;55.90;;;;;;5062260;28;20063;-71
2022/06/17 06:16:31;;;;;;;10.55;3.97;;;20.70;58.50;;;;;;5063889;28;20056;-71
2022/06/17 06:18:57;;;;;;;15.88;6.07;;;20.60;56.00;;;;;;5072094;28;20052;-70
2022/06/17 06:21:24;;;;;;;19.17;6.40;;;20.60;56.00;;;;;;5067499;28;20049;-70
2022/06/17 06:23:51;;;;;;;17.58;6.97;;;20.60;56.00;;;;;;5065678;28;20135;-71
2022/06/17 06:26:21;;;;;;;12.63;5.00;;;20.70;56.10;;;;;;5061634;28;20408;-71
2022/06/17 06:28:48;;;;;;;15.20;5.38;;;20.40;59.40;;;;;;5052490;28;20049;-71
2022/06/17 06:31:22;;;;;;;16.00;6.57;;;21.70;60.90;;;;;;5055545;28;20111;-72
2022/06/17 06:33:49;;;;;;;15.75;6.13;;;21.20;59.90;;;;;;5050405;28;20053;-72
2022/06/17 06:36:15;;;;;;;15.63;5.90;;;20.70;56.30;;;;;;5053427;28;20063;-70
2022/06/17 06:38:42;;;;;;;14.38;6.07;;;20.70;56.30;;;;;;5067326;28;20404;-70
2022/06/17 06:41:09;;;;;;;16.88;6.13;;;22.00;60.70;;;;;;5056459;28;20055;-70
2022/06/17 06:43:36;;;;;;;14.90;5.50;;;19.70;59.60;;;;;;5056096;28;20056;-70
2022/06/17 06:46:05;;;;;;;15.50;5.72;;;20.80;56.50;;;;;;5050666;28;20525;-71
2022/06/17 06:48:33;;;;;;;18.38;6.63;;;20.70;60.40;;;;;;5050450;28;20057;-70
2022/06/17 06:51:00;;;;;;;13.95;5.97;;;20.80;56.60;;;;;;5051460;28;20084;-71
2022/06/17 06:53:27;;;;;;;9.15;5.18;;;21.10;59.70;;;;;;5067450;28;20066;-70
2022/06/17 06:55:53;;;;;;;12.15;4.82;;;20.90;56.60;;;;;;5062237;28;20048;-72
2022/06/17 06:58:21;;;;;;;14.73;5.43;;;20.80;59.80;;;;;;5053796;28;20468;-70
2022/06/17 07:00:49;;;;;;;15.85;5.20;;;21.60;60.50;;;;;;5065103;28;20076;-71
2022/06/17 07:03:17;;;;;;;12.32;5.20;;;20.90;56.80;;;;;;5068965;28;20416;-71
2022/06/17 07:05:46;;;;;;;12.25;4.82;;;20.90;56.80;;;;;;5056767;28;20053;-72
2022/06/17 07:08:14;;;;;;;13.00;5.15;;;20.90;59.80;;;;;;5056276;28;20067;-71
2022/06/17 07:10:41;;;;;;;16.13;4.90;;;20.90;56.90;;;;;;5058138;28;20052;-72
2022/06/17 07:13:08;;;;;;;14.23;5.28;;;20.70;60.40;;;;;;5060201;28;20048;-72
2022/06/17 07:15:35;;;;;;;11.75;4.70;;;20.90;56.80;;;;;;5058286;28;20420;-71
2022/06/17 07:18:02;;;;;;;11.00;4.95;;;20.90;56.80;;;;;;5060131;28;20047;-71
2022/06/17 07:20:31;;;;;;;10.40;4.97;;;20.90;56.70;;;;;;5066363;28;20045;-71
2022/06/17 07:22:59;;;;;;;12.85;4.53;;;20.90;56.70;;;;;;5055247;28;20131;-70
2022/06/17 07:25:26;;;;;;;10.43;4.57;;;20.90;56.70;;;;;;5049769;28;20132;-70
2022/06/17 07:27:53;;;;;;;13.60;5.18;;;20.70;60.30;;;;;;5052283;28;20059;-71
2022/06/17 07:30:20;;;;;;;13.45;5.25;;;21.00;60.40;;;;;;5049924;28;20156;-71
2022/06/17 07:32:47;;;;;;;11.80;4.18;;;21.30;61.70;;;;;;5061251;28;20048;-74
2022/06/17 07:35:14;;;;;;;8.63;4.30;;;20.90;56.50;;;;;;5069922;28;20091;-71
2022/06/17 07:40:27;;;;;;;9.77;4.00;;;20.90;61.20;;;;;;5058082;28;20049;-71
2022/06/17 07:42:54;;;;;;;10.18;4.18;;;20.90;56.40;;;;;;5067612;28;20485;-71
2022/06/17 07:45:21;;;;;;;8.60;4.15;;;21.00;56.40;;;;;;5064032;28;20084;-72
2022/06/17 07:47:48;;;;;;;8.88;4.20;;;21.10;60.00;;;;;;5049721;28;20057;-72
2022/06/17 07:50:18;;;;;;;6.88;4.18;;;21.00;56.30;;;;;;5053661;28;20123;-73
2022/06/17 07:52:45;;;;;;;7.22;3.97;;;21.00;60.40;;;;;;5049163;28;20178;-72
2022/06/17 07:55:11;;;;;;;8.30;3.90;;;21.00;56.30;;;;;;5050985;28;20049;-73
2022/06/17 07:57:39;;;;;;;7.30;3.83;;;21.10;56.40;;;;;;5055136;28;20084;-72
2022/06/17 08:00:07;;;;;;;9.80;4.10;;;21.10;56.30;;;;;;5050655;28;20051;-70
2022/06/17 08:02:34;;;;;;;7.07;3.60;;;21.10;56.40;;;;;;5063435;28;20410;-70
2022/06/17 08:05:01;;;;;;;7.30;3.60;;;21.30;60.20;;;;;;5055862;28;20055;-71
2022/06/17 08:07:28;;;;;;;19.23;4.07;;;21.20;59.60;;;;;;5055706;28;20156;-71
2022/06/17 08:09:55;;;;;;;6.07;3.40;;;20.20;59.20;;;;;;5069055;28;20053;-72
2022/06/17 08:12:22;;;;;;;8.95;4.18;;;21.20;56.10;;;;;;5070061;28;20127;-71
2022/06/17 08:14:54;;;;;;;6.97;3.13;;;21.40;56.10;;;;;;5053144;28;20550;-71
2022/06/17 08:17:20;;;;;;;5.05;3.00;;;21.30;59.90;;;;;;5057482;28;20136;-71
2022/06/17 08:19:48;;;;;;;5.43;3.42;;;21.40;59.90;;;;;;5067074;28;20131;-70
2022/06/17 08:22:15;;;;;;;5.55;3.20;;;21.30;55.80;;;;;;5068801;28;20052;-71
2022/06/17 08:24:41;;;;;;;6.50;3.40;;;21.20;59.30;;;;;;5068431;28;20079;-71
2022/06/17 08:27:08;;;;;;;6.18;3.15;;;21.50;60.50;;;;;;5068732;28;20056;-71
2022/06/17 08:29:35;;;;;;;5.88;3.00;;;21.50;55.80;;;;;;5069546;28;20412;-70
2022/06/17 08:34:44;;;;;;;6.82;3.17;;;21.70;59.80;;;;;;5053072;28;20114;-70
2022/06/17 08:37:11;;;;;;;4.30;2.95;;;22.20;55.80;;;;;;5049612;28;20049;-71
2022/06/17 08:39:37;;;;;;;5.68;3.10;;;21.70;55.40;;;;;;5048387;28;20080;-71
2022/06/17 08:42:07;;;;;;;4.80;3.10;;;21.80;55.40;;;;;;5048586;28;20059;-72
2022/06/17 08:44:42;;;;;;;8.15;3.05;;;21.80;55.90;;;;;;5048241;28;20167;-70
2022/06/17 08:47:29;;;;;;;4.88;2.95;;;22.50;59.50;;;;;;5065774;28;20059;-70
2022/06/17 08:50:18;;;;;;;4.40;2.88;;;21.90;58.30;;;;;;5068212;28;20052;-70
2022/06/17 08:52:57;;;;;;;5.13;2.90;;;22.10;58.60;;;;;;5067616;28;20071;-71
2022/06/17 08:55:26;;;;;;;5.57;3.00;;;22.20;58.30;;;;;;5067600;28;20063;-70
2022/06/17 08:57:58;;;;;;;5.82;3.00;;;23.30;59.40;;;;;;5067966;28;20071;-72
2022/06/17 09:00:29;;;;;;;4.90;2.70;;;22.20;54.70;;;;;;5058763;28;20049;-71
2022/06/17 09:03:15;;;;;;;4.28;2.30;;;22.20;54.60;;;;;;5065056;28;20159;-71
2022/06/17 09:05:46;;;;;;;3.88;2.50;;;22.30;54.50;;;;;;5067914;28;20048;-71
2022/06/17 09:08:24;;;;;;;4.45;2.60;;;22.40;54.40;;;;;;5068057;28;20607;-71
2022/06/17 09:10:57;;;;;;;3.72;2.60;;;22.40;58.10;;;;;;5069087;28;20476;-70
2022/06/17 09:13:32;;;;;;;5.57;2.50;;;22.40;54.20;;;;;;5067097;28;20460;-70
2022/06/17 09:16:02;;;;;;;3.40;2.45;;;22.50;54.20;;;;;;5069310;28;20696;-71
2022/06/17 09:18:31;;;;;;;3.15;2.40;;;22.50;54.10;;;;;;5066584;28;20056;-70
2022/06/17 09:21:00;;;;;;;3.28;2.42;;;22.50;54.00;;;;;;5067955;28;20080;-72
2022/06/17 09:23:29;;;;;;;4.28;2.65;;;22.50;53.90;;;;;;5067390;28;20044;-71
2022/06/17 09:25:55;;;;;;;3.53;2.35;;;22.60;54.00;;;;;;5067807;28;20052;-72
2022/06/17 09:28:24;;;;;;;7.22;2.53;;;22.50;53.90;;;;;;5067530;28;20119;-71
2022/06/17 09:30:52;;;;;;;4.60;2.60;;;22.60;53.90;;;;;;5068188;28;20612;-70
2022/06/17 09:33:22;;;;;;;2.90;2.30;;;22.60;53.90;;;;;;5064910;28;20046;-71
2022/06/17 09:35:53;;;;;;;2.92;2.33;;;22.90;57.80;;;;;;5057377;28;20067;-70
2022/06/17 09:38:22;;;;;;;3.53;2.47;;;22.40;57.60;;;;;;5067978;28;20056;-72
2022/06/17 09:40:53;;;;;;;4.95;2.33;;;22.50;58.00;;;;;;5067624;28;20529;-71
2022/06/17 09:43:21;;;;;;;3.55;2.30;;;22.50;53.90;;;;;;5067526;28;20124;-71
2022/06/17 09:45:49;;;;;;;4.07;2.80;;;21.90;57.40;;;;;;5067517;28;20053;-71
2022/06/17 09:48:17;;;;;;;4.50;2.63;;;22.50;53.90;;;;;;5067304;28;20412;-71
2022/06/17 09:50:46;;;;;;;4.53;2.47;;;22.50;53.90;;;;;;5068719;28;20094;-71
2022/06/17 09:53:17;;;;;;;5.40;2.33;;;22.40;57.40;;;;;;5047874;28;20049;-71
2022/06/17 09:55:45;;;;;;;4.50;2.22;;;22.50;53.90;;;;;;5047708;28;20061;-71
2022/06/17 09:58:13;;;;;;;3.22;2.30;;;22.50;53.90;;;;;;5047647;28;20052;-71
2022/06/17 10:00:42;;;;;;;3.85;2.33;;;22.50;53.90;;;;;;5047591;28;20084;-71
2022/06/17 10:03:17;;;;;;;3.83;2.60;;;22.40;58.10;;;;;;5065449;28;20054;-71
2022/06/17 10:05:46;;;;;;;2.63;2.20;;;22.50;53.90;;;;;;5067460;28;20051;-71
2022/06/17 10:08:16;;;;;;;2.90;2.20;;;22.20;57.90;;;;;;5066904;28;20088;-72
2022/06/17 10:10:47;;;;;;;5.43;2.47;;;22.40;53.90;;;;;;5067180;28;20659;-73
2022/06/17 10:13:20;;;;;;;2.60;2.38;;;22.50;53.90;;;;;;5067748;28;20402;-71
2022/06/17 10:18:37;;;;;;;5.03;2.25;;;22.50;53.90;;;;;;5056651;28;20602;-74
2022/06/17 10:21:16;;;;;;;3.55;2.17;;;22.60;57.60;;;;;;5048789;28;20136;-71
2022/06/17 10:23:47;;;;;;;3.28;2.17;;;22.60;57.30;;;;;;5056647;28;20052;-69
2022/06/17 10:26:19;;;;;;;2.65;2.05;;;22.50;53.90;;;;;;5067201;28;20094;-71
2022/06/17 10:29:08;;;;;;;4.82;2.40;;;22.50;58.80;;;;;;5066705;28;20056;-70
2022/06/17 10:31:37;;;;;;;3.10;2.03;;;22.50;53.90;;;;;;5066687;28;20083;-70
2022/06/17 10:34:06;;;;;;;4.95;2.60;;;22.50;53.90;;;;;;5050307;28;20534;-70
2022/06/17 10:36:33;;;;;;;3.22;2.25;;;22.40;55.90;;;;;;5048350;28;20049;-69
2022/06/17 10:39:01;;;;;;;3.42;2.22;;;22.50;54.00;;;;;;5048483;28;20266;-71
2022/06/17 10:41:28;;;;;;;3.08;2.30;;;22.50;54.00;;;;;;5050703;28;20049;-70
2022/06/17 10:43:55;;;;;;;3.30;2.22;;;22.50;54.00;;;;;;5049739;28;20484;-70
2022/06/17 10:46:22;;;;;;;2.90;2.15;;;22.40;57.30;;;;;;5055876;28;20047;-70
2022/06/17 10:48:51;;;;;;;3.70;2.35;;;22.60;57.10;;;;;;5070655;28;20054;-71
2022/06/17 10:51:18;;;;;;;3.33;2.08;;;22.50;57.40;;;;;;5070874;28;20413;-71
2022/06/17 10:53:46;;;;;;;3.55;2.05;;;22.30;58.10;;;;;;5070355;28;20049;-70
2022/06/17 10:56:18;;;;;;;3.10;2.10;;;22.50;54.20;;;;;;5064213;28;20045;-70
2022/06/17 10:58:55;;;;;;;2.08;1.88;;;22.40;54.10;;;;;;5071425;28;20480;-70
2022/06/17 11:01:22;;;;;;;2.63;2.15;;;22.40;54.10;;;;;;5060339;28;20497;-70
2022/06/17 11:03:52;;;;;;;3.28;2.00;;;22.40;54.20;;;;;;5050105;28;20482;-70
2022/06/17 11:06:19;;;;;;;2.10;1.90;;;22.40;54.20;;;;;;5050459;28;20061;-72
2022/06/17 11:08:53;;;;;;;2.95;2.00;;;22.30;57.40;;;;;;5050276;28;20131;-70
2022/06/17 11:14:18;;;;;;;2.70;2.00;;;22.40;54.10;;;;;;5051010;28;20490;-70
2022/06/17 11:16:45;;;;;;;3.67;2.10;;;22.60;56.30;;;;;;5051450;28;20049;-71
2022/06/17 11:19:13;;;;;;;3.38;2.13;;;22.50;54.20;;;;;;5050807;28;20045;-71
2022/06/17 11:21:43;;;;;;;3.42;2.30;;;22.40;54.10;;;;;;5054032;28;20055;-71
2022/06/17 11:24:19;;;;;;;2.33;1.90;;;22.40;54.10;;;;;;5057744;28;20048;-70
2022/06/17 11:26:59;;;;;;;2.45;1.80;;;22.30;55.70;;;;;;5058960;28;20169;-70
2022/06/17 11:29:36;;;;;;;2.70;1.92;;;22.40;54.10;;;;;;5060019;28;20464;-70
2022/06/17 11:32:13;;;;;;;2.50;2.00;;;22.40;54.00;;;;;;5059950;28;20055;-70
2022/06/17 11:34:47;;;;;;;2.67;1.98;;;22.40;54.10;;;;;;5056227;28;20045;-73
2022/06/17 11:37:16;;;;;;;3.67;2.00;;;22.30;58.50;;;;;;5050893;28;20497;-71
2022/06/17 11:39:42;;;;;;;2.90;2.10;;;22.40;54.10;;;;;;5049618;28;20053;-71
2022/06/17 11:42:16;;;;;;;2.90;1.95;;;22.20;58.70;;;;;;5049889;28;20056;-71
2022/06/17 11:44:51;;;;;;;3.33;2.10;;;22.00;57.10;;;;;;5049453;28;20048;-72
2022/06/17 11:47:20;;;;;;;1.85;1.63;;;22.50;54.10;;;;;;5054598;28;20059;-71
2022/06/17 11:49:47;;;;;;;2.15;1.85;;;22.50;54.00;;;;;;5049125;28;20055;-74
2022/06/17 11:52:13;;;;;;;3.78;1.90;;;22.60;58.90;;;;;;5049306;28;20057;-71
2022/06/17 11:54:47;;;;;;;2.28;2.00;;;22.50;54.00;;;;;;5055120;28;20048;-72
2022/06/17 11:57:18;;;;;;;2.70;2.00;;;22.60;54.00;;;;;;5068894;28;20481;-73
2022/06/17 11:59:46;;;;;;;3.20;1.95;;;22.60;53.90;;;;;;5069330;28;20139;-72
2022/06/17 12:02:14;;;;;;;1.83;1.65;;;22.50;57.80;;;;;;5070133;28;20059;-71
2022/06/17 12:04:42;;;;;;;2.25;1.77;;;22.60;58.20;;;;;;5062846;28;20053;-70
2022/06/17 12:07:31;;;;;;;5.47;1.95;;;22.60;58.30;;;;;;5049181;28;20144;-71
2022/06/17 12:10:02;;;;;;;3.25;1.88;;;22.50;57.00;;;;;;5049211;28;20057;-72
2022/06/17 12:12:30;;;;;;;2.38;1.70;;;21.30;53.10;;;;;;5048654;28;20136;-71
2022/06/17 12:14:59;;;;;;;3.65;2.08;;;22.60;53.80;;;;;;5048696;28;20053;-70
2022/06/17 12:17:26;;;;;;;2.83;2.00;;;22.60;57.50;;;;;;5048766;28;20071;-70
2022/06/17 12:19:52;;;;;;;2.00;1.75;;;22.70;53.90;;;;;;5062425;28;20143;-72
2022/06/17 12:22:20;;;;;;;3.92;1.75;;;22.70;53.90;;;;;;5048555;28;20057;-70
2022/06/17 12:24:48;;;;;;;2.35;1.88;;;22.70;53.90;;;;;;5048574;28;20442;-71
2022/06/17 12:27:20;;;;;;;2.90;2.00;;;22.60;53.80;;;;;;5060475;28;20558;-71
2022/06/17 12:29:51;;;;;;;3.55;2.10;;;22.70;53.90;;;;;;5068593;28;20142;-73
2022/06/17 12:32:22;;;;;;;2.33;1.90;;;22.70;57.50;;;;;;5068710;28;20062;-71
2022/06/17 12:34:52;;;;;;;3.63;1.80;;;22.70;53.90;;;;;;5067412;28;20058;-71
2022/06/17 12:37:27;;;;;;;2.75;1.92;;;22.80;53.90;;;;;;5069917;28;20444;-71
2022/06/17 12:39:57;;;;;;;2.20;1.80;;;22.70;53.90;;;;;;5068213;28;20529;-70
2022/06/17 12:42:27;;;;;;;2.50;1.83;;;22.50;56.90;;;;;;5068266;28;20132;-70
2022/06/17 12:45:01;;;;;;;4.03;1.98;;;22.70;54.00;;;;;;5069251;28;20052;-70
2022/06/17 12:47:31;;;;;;;3.63;2.00;;;22.70;56.50;;;;;;5064067;28;20426;-72
2022/06/17 12:55:41;;;;;;;2.30;1.90;;;22.80;58.40;;;;;;5049162;28;20056;-72
2022/06/17 12:58:13;;;;;;;2.42;1.80;;;22.80;54.00;;;;;;5047749;28;20048;-71
2022/06/17 13:00:42;;;;;;;2.83;1.83;;;22.60;57.20;;;;;;5048455;28;20052;-72
2022/06/17 13:03:22;;;;;;;2.20;1.73;;;22.70;58.30;;;;;;5052627;28;20048;-70
2022/06/17 13:05:49;;;;;;;8.10;1.85;;;22.80;54.10;;;;;;5048769;28;20053;-72
2022/06/17 13:08:21;;;;;;;1.70;1.50;;;22.60;57.90;;;;;;5046243;28;20090;-73
2022/06/17 13:10:53;;;;;;;3.13;1.83;;;22.80;54.30;;;;;;5047426;28;20068;-70